Fargo, ND (58104)

11:16 AM CDT on August 25, 2016 (GMT -0500)
South Fargo | | Change Station

Elev 902 ft 46.82 °N, 96.86 °W | Updated 10 seconds ago

Overcast
Overcast
64.6 °F
Feels Like 64.6 °F
N
8.0
Wind Variable Wind from West
Gusts 10.0 mph

Today
High -- | Low -- °F
--% Chance of Precip.
Yesterday
High -- | Low -- °F
Precip. -- in
Pressure 30.03 in
Visibility 10.0 miles
Clouds Overcast 2200 ft
Dew Point 53 °F
Humidity 66%
Rainfall Not available.
Snow Depth Not available.
6:38 AM 8:19 PM
Last Quarter, 44% visible
METAR KFAR 251553Z 30014KT 10SM OVC022 18/12 A3002 RMK AO2 SLP167 T01780122
Pressure 30.03 in
Visibility 10.0 miles
Clouds Overcast 2200 ft
Dew Point 53 °F
Humidity 66%
Rainfall Not available.
Snow Depth Not available.
6:38 AM 8:19 PM
Last Quarter, 44% visible
METAR KFAR 251553Z 30014KT 10SM OVC022 18/12 A3002 RMK AO2 SLP167 T01780122

10-Day Weather Forecast

Almanac

Astronomy

Aug. 25, 2016 Rise Set
Actual Time
Civil Twilight
Nautical Twilight
Astronomical Twilight
Moon
Length of Visible Light
Length of Day
Tomorrow will be .
, % of the Moon is Illuminated

Today's Extremes

State Highs State Lows

Community

WunderPhotos

Upload Photos

1,934,867 photos uploaded!

WunderBlog® & News

Nearby

Air Quality

  Air Quality AQ Index Pollutant
Not available.

Snow Depth

Station Depth Elevation

Earthquake Activity

City Distance Mag. Time & Date
Minimum magnitude displayed is 2.5.

Coastal Water Temperatures

Place Temperature

Stations

Nearby Weather Stations

Station Location Temp. Windchill Dew Point Humidity Wind Precip. Elev Updated Type
                   

Watches & Warnings

There are currently no watches in effect.